createdAt,value
2022-10-09T00:01:08.686Z,23.42
2022-10-09T00:03:36.991Z,20.85
2022-10-09T00:06:04.895Z,20.45
2022-10-09T00:08:31.803Z,25.10
2022-10-09T00:10:58.227Z,18.10
2022-10-09T00:13:24.707Z,21.88
2022-10-09T00:15:51.206Z,20.75
2022-10-09T00:18:18.613Z,22.35
2022-10-09T00:20:46.571Z,20.52
2022-10-09T00:23:15.258Z,29.05
2022-10-09T00:25:53.542Z,22.23
2022-10-09T00:28:21.344Z,24.75
2022-10-09T00:30:48.163Z,29.88
2022-10-09T00:33:14.833Z,27.73
2022-10-09T00:35:41.690Z,24.85
2022-10-09T00:38:08.719Z,26.08
2022-10-09T00:40:37.445Z,27.83
2022-10-09T00:43:06.989Z,26.13
2022-10-09T00:45:33.653Z,25.85
2022-10-09T00:48:03.120Z,24.48
2022-10-09T00:50:46.509Z,24.13
2022-10-09T00:53:18.535Z,33.80
2022-10-09T00:55:45.843Z,25.10
2022-10-09T00:58:13.096Z,25.98
2022-10-09T01:00:40.639Z,25.70
2022-10-09T01:03:07.199Z,27.80
2022-10-09T01:06:04.445Z,24.42
2022-10-09T01:09:09.925Z,22.70
2022-10-09T01:11:49.171Z,24.13
2022-10-09T01:14:32.382Z,21.30
2022-10-09T01:17:05.121Z,25.10
2022-10-09T01:19:42.371Z,22.95
2022-10-09T01:22:29.163Z,21.63
2022-10-09T01:25:05.156Z,21.48
2022-10-09T01:27:33.138Z,19.63
2022-10-09T01:30:08.231Z,23.13
2022-10-09T01:32:38.686Z,21.77
2022-10-09T01:35:07.004Z,21.90
2022-10-09T01:37:35.744Z,25.38
2022-10-09T01:40:04.458Z,35.80
2022-10-09T01:42:32.565Z,34.08
2022-10-09T01:44:59.084Z,40.08
2022-10-09T01:47:26.156Z,49.70
2022-10-09T01:50:03.942Z,46.35
2022-10-09T01:52:40.388Z,54.85
2022-10-09T01:55:45.546Z,51.78
2022-10-09T01:58:23.487Z,51.08
2022-10-09T02:01:09.634Z,47.42
2022-10-09T02:03:40.769Z,48.47
2022-10-09T02:06:12.316Z,51.17
2022-10-09T02:08:40.284Z,44.22
2022-10-09T02:11:07.495Z,36.35
2022-10-09T02:13:35.977Z,41.47
2022-10-09T02:16:05.767Z,38.53
2022-10-09T02:18:42.320Z,26.60
2022-10-09T02:21:15.151Z,32.90
2022-10-09T02:23:45.127Z,28.10
2022-10-09T02:26:12.816Z,21.58
2022-10-09T02:28:43.819Z,21.90
2022-10-09T02:31:17.041Z,26.77
2022-10-09T02:33:43.585Z,25.88
2022-10-09T02:36:10.334Z,23.60
2022-10-09T02:38:36.808Z,26.92
2022-10-09T02:41:03.566Z,17.50
2022-10-09T02:43:30.078Z,17.52
2022-10-09T02:45:56.524Z,15.00
2022-10-09T02:48:23.009Z,17.13
2022-10-09T02:50:49.519Z,15.15
2022-10-09T02:53:16.055Z,15.85
2022-10-09T02:55:42.512Z,14.10
2022-10-09T02:58:08.934Z,14.60
2022-10-09T03:00:37.335Z,13.18
2022-10-09T03:03:04.230Z,11.40
2022-10-09T03:05:30.739Z,12.32
2022-10-09T03:07:57.213Z,12.43
2022-10-09T03:10:23.719Z,12.52
2022-10-09T03:12:50.514Z,11.57
2022-10-09T03:15:17.242Z,11.50
2022-10-09T03:17:43.764Z,10.75
2022-10-09T03:20:10.268Z,14.27
2022-10-09T03:22:36.697Z,12.82
2022-10-09T03:25:03.498Z,12.10
2022-10-09T03:27:30.874Z,11.98
2022-10-09T03:29:58.546Z,12.20
2022-10-09T03:32:25.602Z,18.17
2022-10-09T03:34:52.139Z,10.52
2022-10-09T03:37:18.635Z,12.05
2022-10-09T03:39:45.155Z,12.23
2022-10-09T03:42:11.635Z,11.75
2022-10-09T03:44:38.026Z,10.93
2022-10-09T03:47:04.559Z,15.13
2022-10-09T03:49:31.037Z,14.27
2022-10-09T03:51:57.483Z,15.63
2022-10-09T03:54:23.906Z,12.10
2022-10-09T03:56:50.330Z,21.08
2022-10-09T03:59:16.810Z,13.90
2022-10-09T04:01:43.249Z,15.63
2022-10-09T04:04:09.660Z,16.48
2022-10-09T04:06:36.136Z,20.05
2022-10-09T04:09:02.597Z,16.20
2022-10-09T04:11:29.003Z,24.27
2022-10-09T04:13:55.496Z,18.23
2022-10-09T04:16:21.981Z,22.48
2022-10-09T04:18:48.531Z,17.58
2022-10-09T04:21:15.077Z,16.92
2022-10-09T04:23:41.622Z,26.52
2022-10-09T04:26:08.147Z,23.17
2022-10-09T04:28:34.717Z,25.98
2022-10-09T04:31:01.434Z,21.48
2022-10-09T04:33:28.149Z,23.20
2022-10-09T04:35:55.696Z,25.98
2022-10-09T04:38:23.409Z,25.80
2022-10-09T04:41:01.818Z,25.20
2022-10-09T04:43:28.397Z,26.25
2022-10-09T04:45:55.352Z,23.67
2022-10-09T04:48:22.227Z,19.95
2022-10-09T04:50:49.015Z,22.40
2022-10-09T04:53:15.752Z,19.75
2022-10-09T04:55:44.076Z,21.17
2022-10-09T04:58:12.137Z,18.50
2022-10-09T05:00:43.953Z,20.67
2022-10-09T05:05:37.617Z,19.17
2022-10-09T05:08:04.302Z,19.17
2022-10-09T05:10:32.278Z,19.80
2022-10-09T05:12:59.216Z,17.27
2022-10-09T05:15:25.894Z,18.42
2022-10-09T05:17:52.340Z,17.42
2022-10-09T05:20:18.848Z,17.98
2022-10-09T05:22:46.375Z,18.15
2022-10-09T05:25:13.776Z,19.23
2022-10-09T05:27:40.215Z,18.50
2022-10-09T05:30:07.799Z,18.58
2022-10-09T05:32:34.503Z,17.67
2022-10-09T05:35:00.955Z,16.27
2022-10-09T05:37:27.511Z,21.88
2022-10-09T05:39:53.968Z,18.90
2022-10-09T05:42:20.404Z,22.40
2022-10-09T05:44:46.846Z,20.67
2022-10-09T05:47:17.768Z,20.83
2022-10-09T05:49:44.209Z,20.63
2022-10-09T05:52:10.619Z,18.45
2022-10-09T05:54:37.092Z,20.88
2022-10-09T05:57:04.903Z,20.85
2022-10-09T05:59:31.321Z,17.80
2022-10-09T06:01:58.021Z,15.30
2022-10-09T06:04:25.035Z,21.35
2022-10-09T06:06:51.964Z,17.20
2022-10-09T06:09:24.051Z,16.55
2022-10-09T06:11:51.135Z,16.88
2022-10-09T06:14:18.206Z,16.05
2022-10-09T06:16:45.512Z,18.92
2022-10-09T06:19:14.411Z,19.05
2022-10-09T06:21:41.212Z,15.55
2022-10-09T06:24:07.963Z,21.02
2022-10-09T06:26:35.006Z,16.38
2022-10-09T06:29:02.518Z,22.15
2022-10-09T06:31:32.169Z,26.45
2022-10-09T06:34:00.241Z,21.77
2022-10-09T06:36:29.207Z,24.73
2022-10-09T06:38:56.039Z,23.00
2022-10-09T06:41:25.180Z,35.28
2022-10-09T06:43:54.338Z,39.15
2022-10-09T06:46:22.846Z,41.05
2022-10-09T06:48:49.347Z,33.92
2022-10-09T06:51:19.099Z,33.92
2022-10-09T06:53:50.647Z,33.35
2022-10-09T06:56:19.796Z,40.45
2022-10-09T06:58:46.820Z,31.65
2022-10-09T07:01:23.904Z,36.08
2022-10-09T07:04:02.914Z,48.40
2022-10-09T07:06:31.734Z,43.40
2022-10-09T07:09:07.212Z,45.90
2022-10-09T07:11:39.235Z,36.30
2022-10-09T07:14:08.082Z,38.83
2022-10-09T07:16:38.117Z,43.22
2022-10-09T07:19:11.065Z,53.28
2022-10-09T07:21:40.839Z,47.65
2022-10-09T07:24:08.122Z,49.25
2022-10-09T07:26:37.447Z,55.13
2022-10-09T07:29:05.996Z,59.25
2022-10-09T07:31:32.459Z,56.08
2022-10-09T07:33:59.558Z,50.25
2022-10-09T07:36:26.872Z,51.20
2022-10-09T07:38:55.357Z,49.63
2022-10-09T07:41:23.114Z,41.88
2022-10-09T07:43:49.852Z,43.50
2022-10-09T07:46:18.844Z,56.65
2022-10-09T07:48:45.983Z,64.30
2022-10-09T07:51:15.286Z,60.45
2022-10-09T07:53:41.975Z,67.82
2022-10-09T07:56:13.976Z,62.15
2022-10-09T07:58:40.430Z,64.18
2022-10-09T08:01:07.895Z,60.40
2022-10-09T08:03:35.344Z,57.83
2022-10-09T08:06:01.881Z,48.42
2022-10-09T08:08:28.586Z,50.53
2022-10-09T08:10:55.019Z,45.47
2022-10-09T08:13:21.532Z,53.08
2022-10-09T08:15:48.042Z,51.33
2022-10-09T08:18:15.285Z,46.35
2022-10-09T08:20:41.875Z,44.70
2022-10-09T08:23:08.288Z,46.10
2022-10-09T08:25:36.571Z,51.00
2022-10-09T08:28:04.106Z,50.35
2022-10-09T08:30:30.815Z,63.03
2022-10-09T08:32:57.283Z,49.10
2022-10-09T08:35:23.711Z,59.60
2022-10-09T08:37:50.274Z,59.60
2022-10-09T08:40:29.458Z,63.55
2022-10-09T08:43:07.020Z,61.45
2022-10-09T08:45:35.095Z,73.93
2022-10-09T08:48:06.485Z,59.40
2022-10-09T08:50:38.012Z,64.20
2022-10-09T08:53:24.338Z,80.28
2022-10-09T08:56:03.313Z,71.00
2022-10-09T08:58:35.847Z,63.15
2022-10-09T09:01:21.721Z,81.50
2022-10-09T09:04:06.558Z,83.80
2022-10-09T09:06:42.711Z,93.28
2022-10-09T09:09:20.914Z,107.03
2022-10-09T09:12:12.299Z,95.88
2022-10-09T09:14:56.801Z,81.43
2022-10-09T09:17:41.464Z,85.57
2022-10-09T09:20:20.999Z,77.80
2022-10-09T09:22:49.413Z,82.05
2022-10-09T09:25:19.776Z,93.82
2022-10-09T09:27:46.559Z,103.50
2022-10-09T09:30:13.081Z,94.07
2022-10-09T09:32:43.635Z,106.97
2022-10-09T09:35:25.262Z,98.05
2022-10-09T09:37:53.012Z,97.70
2022-10-09T09:40:37.602Z,105.82
2022-10-09T09:43:16.057Z,95.80
2022-10-09T09:45:43.812Z,102.22
2022-10-09T09:48:18.698Z,93.25
2022-10-09T09:50:52.907Z,87.00
2022-10-09T09:53:39.681Z,91.03
2022-10-09T09:56:07.045Z,81.22
2022-10-09T09:58:39.195Z,79.53
2022-10-09T10:01:07.286Z,71.70
2022-10-09T10:03:35.715Z,68.70
2022-10-09T10:06:02.439Z,57.92
2022-10-09T10:08:33.724Z,58.33
2022-10-09T10:11:07.696Z,59.90
2022-10-09T10:13:45.548Z,52.97
2022-10-09T10:16:21.597Z,53.30
2022-10-09T10:18:48.408Z,55.00
2022-10-09T10:21:17.598Z,57.30
2022-10-09T10:24:04.302Z,50.25
2022-10-09T10:26:42.920Z,43.10
2022-10-09T10:29:19.572Z,52.25
2022-10-09T10:32:11.102Z,39.90
2022-10-09T10:34:45.847Z,33.25
2022-10-09T10:37:14.964Z,39.25
2022-10-09T10:39:50.999Z,37.03
2022-10-09T10:42:53.167Z,34.30
2022-10-09T10:45:33.546Z,30.20
2022-10-09T10:48:02.766Z,31.35
2022-10-09T10:50:41.347Z,26.05
2022-10-09T10:53:32.250Z,28.55
2022-10-09T10:56:05.365Z,28.83
2022-10-09T10:58:46.946Z,24.45
2022-10-09T11:01:35.356Z,21.63
2022-10-09T11:04:21.392Z,23.15
2022-10-09T11:07:18.207Z,24.80
2022-10-09T11:10:15.860Z,25.55
2022-10-09T11:12:53.623Z,27.23
2022-10-09T11:15:44.750Z,22.27
2022-10-09T11:18:29.108Z,21.10
2022-10-09T11:21:40.782Z,24.55
2022-10-09T11:24:26.966Z,18.90
2022-10-09T11:27:03.146Z,18.33
2022-10-09T11:29:39.804Z,18.90
2022-10-09T11:32:22.251Z,17.40
2022-10-09T11:34:57.589Z,21.05
2022-10-09T11:37:29.612Z,17.42
2022-10-09T11:39:56.892Z,15.60
2022-10-09T11:42:25.947Z,12.70
2022-10-09T11:45:18.852Z,18.17
2022-10-09T11:48:10.132Z,18.70
2022-10-09T11:50:48.926Z,22.23
2022-10-09T11:53:18.716Z,12.55
2022-10-09T11:55:45.855Z,15.98
2022-10-09T11:58:24.764Z,20.33
2022-10-09T12:00:57.721Z,13.57
2022-10-09T12:03:27.446Z,13.07
2022-10-09T12:06:04.999Z,13.18
2022-10-09T12:08:31.771Z,10.68
2022-10-09T12:11:07.311Z,10.65
2022-10-09T12:13:36.730Z,15.80
2022-10-09T12:16:03.805Z,17.33
2022-10-09T12:18:34.537Z,11.02
2022-10-09T12:21:05.307Z,14.23
2022-10-09T12:23:36.058Z,14.02
2022-10-09T12:26:03.764Z,9.37
2022-10-09T12:28:45.859Z,10.50
2022-10-09T12:31:30.213Z,12.10
2022-10-09T12:34:04.773Z,6.55
2022-10-09T12:36:31.897Z,9.38
2022-10-09T12:39:12.645Z,8.50
2022-10-09T12:41:39.893Z,9.10
2022-10-09T12:44:15.697Z,8.13
2022-10-09T12:46:42.265Z,9.15
2022-10-09T12:49:19.303Z,6.70
2022-10-09T12:51:53.843Z,10.57
2022-10-09T12:54:25.153Z,8.43
2022-10-09T12:56:56.391Z,6.75
2022-10-09T12:59:26.165Z,10.90
2022-10-09T13:01:57.880Z,8.77
2022-10-09T13:07:05.720Z,10.98
2022-10-09T13:09:37.832Z,12.25
2022-10-09T13:12:09.259Z,11.65
2022-10-09T13:14:45.929Z,10.85
2022-10-09T13:17:33.497Z,10.68
2022-10-09T13:20:21.419Z,7.50
2022-10-09T13:22:55.435Z,8.75
2022-10-09T13:25:23.392Z,9.10
2022-10-09T13:27:50.110Z,7.75
2022-10-09T13:30:16.956Z,9.80
2022-10-09T13:32:43.452Z,12.05
2022-10-09T13:35:09.890Z,8.27
2022-10-09T13:37:36.701Z,10.93
2022-10-09T13:40:05.842Z,7.97
2022-10-09T13:42:37.096Z,7.43
2022-10-09T13:45:05.665Z,7.20
2022-10-09T13:47:32.168Z,5.72
2022-10-09T13:49:59.107Z,7.72
2022-10-09T13:52:25.627Z,6.25
2022-10-09T13:54:52.146Z,7.32
2022-10-09T13:57:18.790Z,10.00
2022-10-09T13:59:45.534Z,8.77
2022-10-09T14:02:12.324Z,10.18
2022-10-09T14:04:39.014Z,9.32
2022-10-09T14:07:05.544Z,9.70
2022-10-09T14:09:31.997Z,9.48
2022-10-09T14:11:58.887Z,8.95
2022-10-09T14:14:25.327Z,8.65
2022-10-09T14:16:51.816Z,9.40
2022-10-09T14:19:18.402Z,10.07
2022-10-09T14:21:46.801Z,7.97
2022-10-09T14:24:14.467Z,8.82
2022-10-09T14:26:41.275Z,12.15
2022-10-09T14:29:07.825Z,9.30
2022-10-09T14:31:34.265Z,8.48
2022-10-09T14:34:00.843Z,7.82
2022-10-09T14:36:27.576Z,10.40
2022-10-09T14:38:54.225Z,14.48
2022-10-09T14:41:21.617Z,11.20
2022-10-09T14:43:56.070Z,10.57
2022-10-09T14:46:24.308Z,10.88
2022-10-09T14:48:53.131Z,9.82
2022-10-09T14:51:21.290Z,12.93
2022-10-09T14:53:47.926Z,13.57
2022-10-09T14:56:20.085Z,10.70
2022-10-09T14:58:47.128Z,10.60
2022-10-09T15:01:15.563Z,16.73
2022-10-09T15:03:42.667Z,16.58
2022-10-09T15:06:11.777Z,10.50
2022-10-09T15:08:41.505Z,15.00
2022-10-09T15:11:09.479Z,7.53
2022-10-09T15:13:36.768Z,11.27
2022-10-09T15:16:09.585Z,10.98
2022-10-09T15:18:36.163Z,10.35
2022-10-09T15:21:02.862Z,11.57
2022-10-09T15:23:29.735Z,10.65
2022-10-09T15:25:58.287Z,12.20
2022-10-09T15:28:25.510Z,10.45
2022-10-09T15:30:54.705Z,12.57
2022-10-09T15:33:25.658Z,13.15
2022-10-09T15:35:53.844Z,13.30
2022-10-09T15:38:22.579Z,12.77
2022-10-09T15:40:51.432Z,13.48
2022-10-09T15:43:19.831Z,11.95
2022-10-09T15:45:47.150Z,14.30
2022-10-09T15:48:21.861Z,13.55
2022-10-09T15:50:50.651Z,11.43
2022-10-09T15:53:18.958Z,12.95
2022-10-09T15:55:48.039Z,14.90
2022-10-09T15:58:15.807Z,8.90
2022-10-09T16:00:47.304Z,12.20
2022-10-09T16:03:15.053Z,12.48
2022-10-09T16:05:44.321Z,12.82
2022-10-09T16:08:11.798Z,9.75
2022-10-09T16:10:47.860Z,13.07
2022-10-09T16:13:15.498Z,15.52
2022-10-09T16:15:42.611Z,9.93
2022-10-09T16:18:09.935Z,14.18
2022-10-09T16:20:37.977Z,14.88
2022-10-09T16:23:05.333Z,16.95
2022-10-09T16:25:32.253Z,15.52
2022-10-09T16:27:58.734Z,13.40
2022-10-09T16:30:25.688Z,13.27
2022-10-09T16:32:52.856Z,15.27
2022-10-09T16:35:19.896Z,13.65
2022-10-09T16:37:46.316Z,10.50
2022-10-09T16:40:13.058Z,12.88
2022-10-09T16:42:39.807Z,7.20
2022-10-09T16:45:06.872Z,9.70
2022-10-09T16:47:34.016Z,11.23
2022-10-09T16:50:00.486Z,7.82
2022-10-09T16:52:27.048Z,12.68
2022-10-09T16:54:57.073Z,13.32
2022-10-09T16:57:26.060Z,10.07
2022-10-09T16:59:52.542Z,10.32
2022-10-09T17:02:18.964Z,9.90
2022-10-09T17:04:46.248Z,11.82
2022-10-09T17:07:12.887Z,8.85
2022-10-09T17:09:40.491Z,8.02
2022-10-09T17:12:14.940Z,8.63
2022-10-09T17:14:41.427Z,11.30
2022-10-09T17:17:10.035Z,8.43
2022-10-09T17:19:37.900Z,8.20
2022-10-09T17:22:05.238Z,8.90
2022-10-09T17:24:32.148Z,7.43
2022-10-09T17:26:58.767Z,9.23
2022-10-09T17:29:25.245Z,7.60
2022-10-09T17:31:52.078Z,14.05
2022-10-09T17:34:18.723Z,12.93
2022-10-09T17:36:45.791Z,10.60
2022-10-09T17:39:15.383Z,9.15
2022-10-09T17:41:44.237Z,12.27
2022-10-09T17:44:10.716Z,9.52
2022-10-09T17:46:37.185Z,9.20
2022-10-09T17:49:04.513Z,9.82
2022-10-09T17:51:37.083Z,10.10
2022-10-09T17:54:12.298Z,13.13
2022-10-09T17:56:39.717Z,15.95
2022-10-09T17:59:06.370Z,9.05
2022-10-09T18:01:32.958Z,10.95
2022-10-09T18:03:59.836Z,10.98
2022-10-09T18:06:26.631Z,14.23
2022-10-09T18:08:55.386Z,10.45
2022-10-09T18:11:24.197Z,13.40
2022-10-09T18:13:50.992Z,11.95
2022-10-09T18:16:22.828Z,13.90
2022-10-09T18:21:17.062Z,11.77
2022-10-09T18:23:45.028Z,15.75
2022-10-09T18:26:14.543Z,10.40
2022-10-09T18:28:42.671Z,12.32
2022-10-09T18:31:14.293Z,11.48
2022-10-09T18:33:40.797Z,10.60
2022-10-09T18:36:11.825Z,11.77
2022-10-09T18:38:38.327Z,9.82
2022-10-09T18:41:08.263Z,10.23
2022-10-09T18:43:35.200Z,8.27
2022-10-09T18:46:01.725Z,10.00
2022-10-09T18:48:35.166Z,12.93
2022-10-09T18:51:03.515Z,13.98
2022-10-09T18:53:32.450Z,9.63
2022-10-09T18:55:59.139Z,9.23
2022-10-09T18:58:25.803Z,12.90
2022-10-09T19:00:52.266Z,11.95
2022-10-09T19:03:18.731Z,10.98
2022-10-09T19:05:45.195Z,15.55
2022-10-09T19:08:12.336Z,13.30
2022-10-09T19:10:39.260Z,12.10
2022-10-09T19:13:05.887Z,14.32
2022-10-09T19:15:32.499Z,9.93
2022-10-09T19:17:59.440Z,11.45
2022-10-09T19:20:29.383Z,11.43
2022-10-09T19:22:56.368Z,10.80
2022-10-09T19:25:23.401Z,13.02
2022-10-09T19:27:50.633Z,12.80
2022-10-09T19:30:18.529Z,10.98
2022-10-09T19:32:46.328Z,11.52
2022-10-09T19:35:13.380Z,10.77
2022-10-09T19:37:40.284Z,13.15
2022-10-09T19:40:07.957Z,11.57
2022-10-09T19:42:35.039Z,11.55
2022-10-09T19:45:01.550Z,12.98
2022-10-09T19:47:28.391Z,12.52
2022-10-09T19:49:54.978Z,15.30
2022-10-09T19:52:23.013Z,13.50
2022-10-09T19:54:49.986Z,11.65
2022-10-09T19:57:17.006Z,10.38
2022-10-09T19:59:44.130Z,20.17
2022-10-09T20:02:11.176Z,13.95
2022-10-09T20:04:38.146Z,15.57
2022-10-09T20:07:07.927Z,16.15
2022-10-09T20:09:38.906Z,17.02
2022-10-09T20:12:07.250Z,12.43
2022-10-09T20:14:34.273Z,10.27
2022-10-09T20:17:02.332Z,11.68
2022-10-09T20:19:31.340Z,16.70
2022-10-09T20:21:58.575Z,12.93
2022-10-09T20:24:25.052Z,12.55
2022-10-09T20:26:51.540Z,11.88
2022-10-09T20:29:17.950Z,11.48
2022-10-09T20:31:44.480Z,14.80
2022-10-09T20:34:10.988Z,23.83
2022-10-09T20:36:39.013Z,16.88
2022-10-09T20:39:11.601Z,17.25
2022-10-09T20:41:41.112Z,13.88
2022-10-09T20:44:07.749Z,12.23
2022-10-09T20:46:36.916Z,14.57
2022-10-09T20:49:06.372Z,16.02
2022-10-09T20:51:35.196Z,13.38
2022-10-09T20:54:02.332Z,14.48
2022-10-09T20:56:31.540Z,17.35
2022-10-09T20:58:59.065Z,12.43
2022-10-09T21:01:25.961Z,15.70
2022-10-09T21:03:52.476Z,14.48
2022-10-09T21:06:20.802Z,21.02
2022-10-09T21:08:47.766Z,14.35
2022-10-09T21:11:17.071Z,14.95
2022-10-09T21:13:44.617Z,17.92
2022-10-09T21:16:13.596Z,18.40
2022-10-09T21:18:40.485Z,15.65
2022-10-09T21:21:09.689Z,13.75
2022-10-09T21:23:36.328Z,15.32
2022-10-09T21:26:03.583Z,15.82
2022-10-09T21:28:30.239Z,14.52
2022-10-09T21:30:56.776Z,19.05
2022-10-09T21:33:23.267Z,13.70
2022-10-09T21:35:51.621Z,12.70
2022-10-09T21:38:20.790Z,14.27
2022-10-09T21:40:49.237Z,16.73
2022-10-09T21:43:16.199Z,23.17
2022-10-09T21:45:42.782Z,22.52
2022-10-09T21:48:15.523Z,18.45
2022-10-09T21:50:42.380Z,14.02
2022-10-09T21:53:08.888Z,19.85
2022-10-09T21:55:37.646Z,21.52
2022-10-09T21:58:04.908Z,17.75
2022-10-09T22:00:31.442Z,17.83
2022-10-09T22:02:58.015Z,14.75
2022-10-09T22:05:24.493Z,18.42
2022-10-09T22:07:50.950Z,17.52
2022-10-09T22:10:17.515Z,18.42
2022-10-09T22:12:43.925Z,20.17
2022-10-09T22:15:10.842Z,20.00
2022-10-09T22:17:37.315Z,16.75
2022-10-09T22:20:04.246Z,16.58
2022-10-09T22:22:31.676Z,16.67
2022-10-09T22:24:59.742Z,18.55
2022-10-09T22:27:26.490Z,16.85
2022-10-09T22:29:53.035Z,14.35
2022-10-09T22:32:19.486Z,17.23
2022-10-09T22:34:45.981Z,18.83
2022-10-09T22:37:12.438Z,19.65
2022-10-09T22:39:38.937Z,22.70
2022-10-09T22:42:05.426Z,24.40
2022-10-09T22:44:32.135Z,20.92
2022-10-09T22:46:58.586Z,15.05
2022-10-09T22:49:24.995Z,20.13
2022-10-09T22:51:51.464Z,16.10
2022-10-09T22:54:19.010Z,16.17
2022-10-09T22:56:46.214Z,17.10
2022-10-09T22:59:15.590Z,20.40
2022-10-09T23:01:53.498Z,16.25
2022-10-09T23:04:21.643Z,21.65
2022-10-09T23:06:59.021Z,20.33
2022-10-09T23:09:29.007Z,17.10
2022-10-09T23:11:56.660Z,19.45
2022-10-09T23:14:23.740Z,18.88
2022-10-09T23:16:50.298Z,16.52
2022-10-09T23:19:17.847Z,18.75
2022-10-09T23:21:47.276Z,19.30
2022-10-09T23:24:18.254Z,19.00
2022-10-09T23:26:46.035Z,29.17
2022-10-09T23:29:18.023Z,18.52
2022-10-09T23:31:44.833Z,21.48
2022-10-09T23:34:11.800Z,22.10
2022-10-09T23:36:38.503Z,17.95
2022-10-09T23:39:06.223Z,20.13
2022-10-09T23:41:33.110Z,19.60
2022-10-09T23:43:59.536Z,23.55
2022-10-09T23:46:29.251Z,18.30
2022-10-09T23:48:55.771Z,22.27
2022-10-09T23:51:24.451Z,18.92
2022-10-09T23:53:51.092Z,18.15
2022-10-09T23:56:23.122Z,24.75
2022-10-09T23:58:49.949Z,14.00
